Time;durP1;ratioP1;P1;durP2;ratioP2;P2;SDS_P1;SDS_P2;PMS_P1;PMS_P2;Temp;Humidity;BMP_temperature;BMP_pressure;BME280_temperature;BME280_humidity;BME280_pressure;Samples;Min_cycle;Max_cycle;Signal;HPM_P1;HPM_P2
2022/02/12 00:01:47;;;;;;;7.70;5.77;;;4.60;95.40;;;;;;5052366;28;20403;-68
2022/02/12 00:04:13;;;;;;;11.77;6.47;;;4.60;95.50;;;;;;5053714;28;20198;-68
2022/02/12 00:06:39;;;;;;;8.77;6.63;;;4.50;95.40;;;;;;5054531;28;20178;-68
2022/02/12 00:09:05;;;;;;;9.33;6.30;;;4.50;95.20;;;;;;5072386;28;20181;-68
2022/02/12 00:11:30;;;;;;;9.50;6.10;;;4.50;95.30;;;;;;5072012;28;20426;-75
2022/02/12 00:13:56;;;;;;;8.17;6.33;;;4.60;95.30;;;;;;5072445;28;20173;-68
2022/02/12 00:16:22;;;;;;;7.83;5.93;;;4.30;95.10;;;;;;5073504;28;20226;-68
2022/02/12 00:18:47;;;;;;;9.90;6.70;;;4.40;95.40;;;;;;5073213;28;20523;-68
2022/02/12 00:21:13;;;;;;;12.17;6.47;;;4.00;95.30;;;;;;5068144;28;20674;-68
2022/02/12 00:23:39;;;;;;;7.53;6.80;;;4.50;95.50;;;;;;5035689;28;20209;-68
2022/02/12 00:26:05;;;;;;;10.20;7.00;;;4.50;95.60;;;;;;5053607;28;20284;-68
2022/02/12 00:28:31;;;;;;;8.00;6.60;;;4.50;95.60;;;;;;5053565;28;20275;-69
2022/02/12 00:30:57;;;;;;;8.37;7.50;;;4.50;95.70;;;;;;5034952;28;20634;-68
2022/02/12 00:33:23;;;;;;;9.40;7.40;;;4.60;96.00;;;;;;5052914;28;20260;-68
2022/02/12 00:35:49;;;;;;;7.97;6.60;;;4.20;95.90;;;;;;5052449;28;20166;-68
2022/02/12 00:38:14;;;;;;;10.67;6.83;;;4.10;95.70;;;;;;5015767;28;20231;-68
2022/02/12 00:40:40;;;;;;;12.07;7.33;;;4.30;95.90;;;;;;5014221;28;20171;-68
2022/02/12 00:43:06;;;;;;;15.30;7.83;;;4.30;96.10;;;;;;5032685;28;20175;-68
2022/02/12 00:45:32;;;;;;;11.33;7.10;;;3.80;95.80;;;;;;5033014;28;20178;-75
2022/02/12 00:47:57;;;;;;;13.73;6.70;;;4.20;95.60;;;;;;5049149;28;20181;-68
2022/02/12 00:50:23;;;;;;;10.27;5.90;;;4.20;95.70;;;;;;5035330;28;20400;-67
2022/02/12 00:52:49;;;;;;;5.87;5.27;;;4.30;95.90;;;;;;5034895;28;20182;-68
2022/02/12 00:55:15;;;;;;;7.23;5.93;;;4.30;96.00;;;;;;5035061;28;20406;-68
2022/02/12 00:57:40;;;;;;;13.03;6.43;;;4.40;96.10;;;;;;5052415;28;20223;-68
2022/02/12 01:00:07;;;;;;;8.67;5.47;;;3.90;95.70;;;;;;5052814;28;20641;-68
2022/02/12 01:02:33;;;;;;;9.93;5.75;;;4.30;95.70;;;;;;5052751;28;20177;-83
2022/02/12 01:04:58;;;;;;;7.37;5.57;;;4.30;95.80;;;;;;5052582;28;20669;-68
2022/02/12 01:07:24;;;;;;;7.33;5.60;;;3.80;95.70;;;;;;5052994;28;20723;-68
2022/02/12 01:09:50;;;;;;;8.50;5.53;;;4.30;95.80;;;;;;5034902;28;20223;-68
2022/02/12 01:12:16;;;;;;;13.03;6.20;;;4.20;96.00;;;;;;5052970;28;20201;-68
2022/02/12 01:14:41;;;;;;;8.20;5.70;;;3.80;96.00;;;;;;5034605;28;20419;-68
2022/02/12 01:17:10;;;;;;;8.37;6.00;;;4.10;96.40;;;;;;5051865;28;20194;-68
2022/02/12 01:19:36;;;;;;;8.18;5.65;;;4.10;96.20;;;;;;5051930;28;20174;-68
2022/02/12 01:22:02;;;;;;;6.70;5.68;;;4.10;96.10;;;;;;5052771;28;20653;-67
2022/02/12 01:24:28;;;;;;;11.97;6.03;;;4.10;96.20;;;;;;5034565;28;20304;-67
2022/02/12 01:26:56;;;;;;;9.90;6.83;;;4.10;96.00;;;;;;5052003;28;20387;-67
2022/02/12 01:29:21;;;;;;;8.25;6.32;;;4.20;96.00;;;;;;5052534;28;20169;-67
2022/02/12 01:31:47;;;;;;;11.70;5.93;;;4.10;96.10;;;;;;5051935;28;20544;-68
2022/02/12 01:34:13;;;;;;;7.90;5.80;;;4.00;96.30;;;;;;5052332;28;20693;-67
2022/02/12 01:36:38;;;;;;;8.27;6.80;;;4.10;96.30;;;;;;5048220;28;20178;-68
2022/02/12 01:39:04;;;;;;;8.47;5.97;;;3.80;96.10;;;;;;5014756;28;20175;-67
2022/02/12 01:41:30;;;;;;;6.75;6.05;;;4.00;96.30;;;;;;5032634;28;20171;-67
2022/02/12 01:43:57;;;;;;;6.47;5.10;;;3.80;96.20;;;;;;5031959;28;20225;-67
2022/02/12 01:46:23;;;;;;;8.75;4.95;;;3.60;96.10;;;;;;5014582;28;20261;-67
2022/02/12 01:48:50;;;;;;;10.07;5.80;;;4.00;96.30;;;;;;5031837;28;20276;-67
2022/02/12 01:51:16;;;;;;;9.30;5.20;;;3.70;96.30;;;;;;5014549;28;20186;-67
2022/02/12 01:53:42;;;;;;;6.20;5.60;;;4.00;96.20;;;;;;5031758;28;20185;-67
2022/02/12 01:56:08;;;;;;;8.13;5.33;;;4.00;96.20;;;;;;5032279;28;20177;-67
2022/02/12 01:58:33;;;;;;;5.97;5.00;;;3.60;96.00;;;;;;5033583;28;20179;-78
2022/02/12 02:00:59;;;;;;;6.90;4.60;;;4.00;96.30;;;;;;5017728;28;20253;-68
2022/02/12 02:03:25;;;;;;;6.20;4.90;;;4.00;96.30;;;;;;5018020;28;20947;-67
2022/02/12 02:05:51;;;;;;;11.60;5.17;;;4.00;96.20;;;;;;5035406;28;20254;-68
2022/02/12 02:08:17;;;;;;;7.90;5.10;;;4.00;96.10;;;;;;5035570;28;20166;-68
2022/02/12 02:10:43;;;;;;;8.60;6.03;;;4.10;95.70;;;;;;5035359;28;20391;-68
2022/02/12 02:13:22;;;;;;;9.40;6.15;;;4.00;95.70;;;;;;5017761;28;20463;-68
2022/02/12 02:15:48;;;;;;;8.25;5.97;;;4.00;96.00;;;;;;5034886;28;20159;-68
2022/02/12 02:18:13;;;;;;;8.17;5.40;;;4.00;96.10;;;;;;5035619;28;20174;-68
2022/02/12 02:20:40;;;;;;;6.53;5.53;;;4.10;96.20;;;;;;5017279;28;20211;-70
2022/02/12 02:23:05;;;;;;;7.15;5.78;;;3.90;96.20;;;;;;5035332;28;20262;-68
2022/02/12 02:25:31;;;;;;;7.97;4.83;;;3.90;95.80;;;;;;5035383;28;20261;-68
2022/02/12 02:27:57;;;;;;;5.40;4.90;;;3.60;95.40;;;;;;5035040;28;20509;-68
2022/02/12 02:30:26;;;;;;;6.00;5.37;;;3.40;95.50;;;;;;5017839;28;20181;-68
2022/02/12 02:32:53;;;;;;;5.60;4.88;;;3.90;95.80;;;;;;5034524;28;20634;-68
2022/02/12 02:35:19;;;;;;;5.88;5.00;;;3.80;95.60;;;;;;5035159;28;20179;-68
2022/02/12 02:37:49;;;;;;;5.15;4.63;;;3.80;95.80;;;;;;5017025;28;20206;-69
2022/02/12 02:40:20;;;;;;;6.82;5.18;;;3.50;95.70;;;;;;5035194;28;20175;-68
2022/02/12 02:42:47;;;;;;;8.57;5.30;;;3.60;95.80;;;;;;5016830;28;20253;-68
2022/02/12 02:45:14;;;;;;;5.70;5.20;;;3.70;96.00;;;;;;5017022;28;20259;-68
2022/02/12 02:47:41;;;;;;;8.73;5.50;;;3.70;96.20;;;;;;5034603;28;20174;-80
2022/02/12 02:56:02;;;;;;;8.43;6.13;;;3.70;96.30;;;;;;5034684;28;20225;-68
2022/02/12 02:58:37;;;;;;;7.82;4.90;;;3.60;96.20;;;;;;5018882;28;20224;-69
2022/02/12 03:01:06;;;;;;;5.90;5.30;;;3.70;96.30;;;;;;5036794;28;20164;-68
2022/02/12 03:03:32;;;;;;;9.15;5.78;;;3.60;96.50;;;;;;5036971;28;20213;-67
2022/02/12 03:05:58;;;;;;;7.03;5.13;;;3.70;96.50;;;;;;5054232;28;20182;-68
2022/02/12 03:08:25;;;;;;;8.55;5.45;;;3.60;96.70;;;;;;5055027;28;20400;-68
2022/02/12 03:10:51;;;;;;;7.40;5.32;;;3.70;97.00;;;;;;5036553;28;20741;-68
2022/02/12 03:13:17;;;;;;;6.30;5.70;;;3.70;96.60;;;;;;5055110;28;20194;-68
2022/02/12 03:15:42;;;;;;;12.90;5.10;;;3.60;96.50;;;;;;5037284;28;20638;-68
2022/02/12 03:18:08;;;;;;;7.43;5.30;;;3.60;96.60;;;;;;5054925;28;20220;-67
2022/02/12 03:20:35;;;;;;;5.40;4.90;;;3.20;96.30;;;;;;5035861;28;20178;-66
2022/02/12 03:23:01;;;;;;;8.73;5.78;;;3.20;96.40;;;;;;5036477;28;20884;-68
2022/02/12 03:25:28;;;;;;;7.75;5.68;;;3.60;96.70;;;;;;5054314;28;20399;-68
2022/02/12 03:27:57;;;;;;;7.80;5.78;;;3.50;96.60;;;;;;5036185;28;20188;-68
2022/02/12 03:30:26;;;;;;;6.75;5.10;;;3.60;96.40;;;;;;5053843;28;20170;-68
2022/02/12 03:32:51;;;;;;;7.18;5.05;;;3.50;96.70;;;;;;5053924;28;20253;-68
2022/02/12 03:35:17;;;;;;;5.60;5.03;;;3.50;96.20;;;;;;5054452;28;20189;-68
2022/02/12 03:37:43;;;;;;;9.10;5.40;;;3.50;96.30;;;;;;5036264;28;20185;-71
2022/02/12 03:40:12;;;;;;;10.48;5.88;;;3.30;96.40;;;;;;5036750;28;20379;-68
2022/02/12 03:42:39;;;;;;;8.10;5.93;;;3.50;96.70;;;;;;5054229;28;20182;-67
2022/02/12 03:45:05;;;;;;;9.07;5.30;;;3.40;96.40;;;;;;5053760;28;20205;-68
2022/02/12 03:47:31;;;;;;;9.25;5.43;;;3.60;96.60;;;;;;5053721;28;20174;-68
2022/02/12 03:49:57;;;;;;;8.27;4.77;;;3.60;96.70;;;;;;5052928;28;20189;-68
2022/02/12 03:52:23;;;;;;;5.53;4.33;;;3.70;96.50;;;;;;5019615;28;20173;-67
2022/02/12 03:54:49;;;;;;;6.95;5.25;;;3.70;96.00;;;;;;5035463;28;20394;-68
2022/02/12 03:57:14;;;;;;;8.73;5.30;;;3.30;95.70;;;;;;5053746;28;20630;-68
2022/02/12 03:59:40;;;;;;;8.90;5.67;;;3.60;96.00;;;;;;5036133;28;20184;-77
2022/02/12 04:02:06;;;;;;;5.77;5.30;;;3.60;96.20;;;;;;5053819;28;20181;-68
2022/02/12 04:04:32;;;;;;;8.67;5.50;;;3.60;96.20;;;;;;5053652;28;20221;-68
2022/02/12 04:06:58;;;;;;;10.00;5.00;;;3.60;96.30;;;;;;5018207;28;20638;-68
2022/02/12 04:09:24;;;;;;;6.70;4.65;;;3.60;96.20;;;;;;5033527;28;20446;-68
2022/02/12 04:11:50;;;;;;;8.70;5.37;;;3.50;96.20;;;;;;5033235;28;20178;-68
2022/02/12 04:14:16;;;;;;;9.87;5.33;;;3.50;96.10;;;;;;5016218;28;20787;-67
2022/02/12 04:16:41;;;;;;;7.70;5.45;;;3.40;96.10;;;;;;5033169;28;20964;-78
2022/02/12 04:19:07;;;;;;;9.27;6.43;;;3.20;96.20;;;;;;5051554;28;20341;-68
2022/02/12 04:21:33;;;;;;;11.57;5.20;;;3.50;96.50;;;;;;5048090;28;20696;-68
2022/02/12 04:23:59;;;;;;;8.23;4.43;;;3.20;96.40;;;;;;5053787;28;20262;-68
2022/02/12 04:26:24;;;;;;;6.27;4.67;;;3.50;96.50;;;;;;5051713;28;20582;-68
2022/02/12 04:28:50;;;;;;;6.03;3.90;;;3.50;96.30;;;;;;5052208;28;20177;-68
2022/02/12 04:31:16;;;;;;;9.30;4.22;;;3.40;96.50;;;;;;5052655;28;20211;-67
2022/02/12 04:33:42;;;;;;;7.17;4.77;;;3.50;96.20;;;;;;5051860;28;20217;-78
2022/02/12 04:36:08;;;;;;;9.27;4.73;;;3.40;96.30;;;;;;5070145;28;20215;-68
2022/02/12 04:38:34;;;;;;;9.00;4.90;;;3.40;95.80;;;;;;5073022;28;20735;-68
2022/02/12 04:41:00;;;;;;;9.03;5.07;;;3.40;96.00;;;;;;5072245;28;20180;-68
2022/02/12 04:43:26;;;;;;;12.60;4.90;;;3.50;96.30;;;;;;5071374;28;21061;-68
2022/02/12 04:45:52;;;;;;;7.47;4.90;;;3.00;95.70;;;;;;5072683;28;20208;-68
2022/02/12 04:48:18;;;;;;;7.67;5.50;;;3.40;96.20;;;;;;5053950;28;20204;-68
2022/02/12 04:50:43;;;;;;;8.03;4.50;;;3.20;96.40;;;;;;5052573;28;20940;-82
2022/02/12 04:53:09;;;;;;;11.77;5.60;;;3.20;96.40;;;;;;5052459;28;20208;-68
2022/02/12 04:55:35;;;;;;;7.47;5.77;;;3.20;96.40;;;;;;5070797;28;20207;-68
2022/02/12 04:58:01;;;;;;;10.50;5.40;;;3.20;96.60;;;;;;5072715;28;20180;-68
2022/02/12 05:00:26;;;;;;;9.00;5.47;;;3.20;96.40;;;;;;5071974;28;20280;-68
2022/02/12 05:02:52;;;;;;;7.43;5.40;;;2.90;96.10;;;;;;5073078;28;20543;-68
2022/02/12 05:05:18;;;;;;;10.97;4.80;;;3.10;96.60;;;;;;5071676;28;20223;-68
2022/02/12 05:07:44;;;;;;;10.37;5.67;;;2.80;96.50;;;;;;5072693;28;20658;-70
2022/02/12 05:10:10;;;;;;;12.63;5.17;;;3.10;96.60;;;;;;5072000;28;20389;-68
2022/02/12 05:12:36;;;;;;;8.57;5.47;;;2.80;96.50;;;;;;5072904;28;20180;-67
2022/02/12 05:15:02;;;;;;;5.43;4.20;;;3.20;96.70;;;;;;5072578;28;20712;-67
2022/02/12 05:17:28;;;;;;;6.85;5.20;;;3.10;96.50;;;;;;5073024;28;20423;-68
2022/02/12 05:19:54;;;;;;;9.10;5.20;;;3.10;96.70;;;;;;5072465;28;20632;-68
2022/02/12 05:22:19;;;;;;;9.50;5.47;;;3.00;96.60;;;;;;5058080;28;20224;-68
2022/02/12 05:24:46;;;;;;;5.37;4.50;;;3.10;96.70;;;;;;5034323;28;20561;-78
2022/02/12 05:27:12;;;;;;;6.00;5.28;;;2.70;96.70;;;;;;5051868;28;20469;-68
2022/02/12 05:29:38;;;;;;;10.80;5.70;;;3.10;96.90;;;;;;5034573;28;20177;-68
2022/02/12 05:32:03;;;;;;;7.07;5.07;;;3.10;97.00;;;;;;5034048;28;20174;-68
2022/02/12 05:34:29;;;;;;;6.50;5.03;;;3.20;97.10;;;;;;5055502;28;20185;-67
2022/02/12 05:36:55;;;;;;;9.87;5.40;;;3.10;96.60;;;;;;5038016;28;20421;-68
2022/02/12 05:39:21;;;;;;;6.33;5.33;;;3.10;96.60;;;;;;5036527;28;20396;-68
2022/02/12 05:41:47;;;;;;;8.87;5.70;;;3.00;97.00;;;;;;5036293;28;20768;-75
2022/02/12 05:44:13;;;;;;;10.13;6.30;;;3.10;97.20;;;;;;5035291;28;20539;-67
2022/02/12 05:46:40;;;;;;;7.43;4.90;;;3.10;97.20;;;;;;5017702;28;20421;-67
2022/02/12 05:49:07;;;;;;;8.50;5.68;;;3.10;97.00;;;;;;5034919;28;20537;-68
2022/02/12 05:51:33;;;;;;;9.23;5.53;;;3.10;97.00;;;;;;5055338;28;20192;-67
2022/02/12 05:54:00;;;;;;;9.95;5.32;;;3.10;97.20;;;;;;5054447;28;20180;-67
2022/02/12 05:56:27;;;;;;;6.32;4.97;;;3.10;97.10;;;;;;5055276;28;20178;-67
2022/02/12 05:58:53;;;;;;;11.63;5.20;;;3.20;97.20;;;;;;5054333;28;20169;-67
2022/02/12 06:01:18;;;;;;;6.97;5.20;;;3.20;97.00;;;;;;5054917;28;20678;-67
2022/02/12 06:03:44;;;;;;;11.57;5.20;;;3.20;96.80;;;;;;5053070;28;20470;-67
2022/02/12 06:06:10;;;;;;;8.83;5.60;;;3.30;96.80;;;;;;5054049;28;20420;-67
2022/02/12 06:08:36;;;;;;;7.37;5.03;;;3.30;96.70;;;;;;5037103;28;20189;-67
2022/02/12 06:11:04;;;;;;;6.27;5.60;;;2.90;96.40;;;;;;5052430;28;20262;-67
2022/02/12 06:13:30;;;;;;;12.65;5.57;;;3.30;96.70;;;;;;5039436;28;20185;-67
2022/02/12 06:15:56;;;;;;;7.55;5.30;;;3.30;96.80;;;;;;5016509;28;20183;-68
2022/02/12 06:18:22;;;;;;;12.30;5.83;;;2.90;96.20;;;;;;5037287;28;20238;-67
2022/02/12 06:20:47;;;;;;;6.80;5.90;;;3.20;96.20;;;;;;5044769;28;20424;-67
2022/02/12 06:23:13;;;;;;;7.07;5.07;;;2.80;96.00;;;;;;5022923;28;20439;-67
2022/02/12 06:25:39;;;;;;;7.57;5.63;;;2.70;96.30;;;;;;5034388;28;20273;-66
2022/02/12 06:28:05;;;;;;;6.60;5.80;;;3.10;96.60;;;;;;5033941;28;20308;-67
2022/02/12 06:30:31;;;;;;;7.03;5.80;;;2.70;96.20;;;;;;5017158;28;20264;-66
2022/02/12 06:33:00;;;;;;;7.72;5.35;;;3.00;96.50;;;;;;5016448;28;20236;-67
2022/02/12 06:35:27;;;;;;;7.70;5.20;;;3.10;96.80;;;;;;5034458;28;20179;-66
2022/02/12 06:37:53;;;;;;;9.07;6.18;;;2.90;96.80;;;;;;5034053;28;20182;-82
2022/02/12 06:40:19;;;;;;;6.35;5.28;;;3.00;96.80;;;;;;5056824;28;20181;-67
2022/02/12 06:42:46;;;;;;;10.37;6.20;;;3.00;96.80;;;;;;5039934;28;20178;-67
2022/02/12 06:45:12;;;;;;;10.60;6.15;;;3.00;96.90;;;;;;5057067;28;20201;-67
2022/02/12 06:47:39;;;;;;;9.47;5.80;;;2.90;97.20;;;;;;5022738;28;20558;-67
2022/02/12 06:50:05;;;;;;;8.80;6.32;;;2.80;96.90;;;;;;5011869;28;20182;-66
2022/02/12 06:52:31;;;;;;;11.45;5.80;;;2.90;96.90;;;;;;5055597;28;20169;-67
2022/02/12 06:54:57;;;;;;;8.67;7.07;;;3.00;97.20;;;;;;5034068;28;20209;-67
2022/02/12 06:57:23;;;;;;;9.30;6.63;;;2.70;97.10;;;;;;5038048;28;20688;-68
2022/02/12 06:59:48;;;;;;;9.68;5.70;;;2.70;97.20;;;;;;5041536;28;20205;-68
2022/02/12 07:02:14;;;;;;;9.83;6.20;;;2.90;97.30;;;;;;5038701;28;20211;-69
2022/02/12 07:04:40;;;;;;;8.57;5.80;;;3.00;97.60;;;;;;5053022;28;20300;-72
2022/02/12 07:07:05;;;;;;;9.43;7.17;;;3.00;97.70;;;;;;5030345;28;20185;-71
2022/02/12 07:09:31;;;;;;;7.50;5.93;;;2.80;97.80;;;;;;5042400;28;20271;-72
2022/02/12 07:11:57;;;;;;;9.83;5.57;;;3.10;98.20;;;;;;5050896;28;20200;-70
2022/02/12 07:14:24;;;;;;;12.50;6.37;;;3.00;97.90;;;;;;5035097;28;20630;-70
2022/02/12 07:16:50;;;;;;;11.60;6.72;;;3.10;97.50;;;;;;5033323;28;20630;-69
2022/02/12 07:19:16;;;;;;;12.00;5.90;;;2.60;97.20;;;;;;5044917;28;20192;-69
2022/02/12 07:21:42;;;;;;;7.43;6.13;;;3.10;97.50;;;;;;5053265;28;20744;-70
2022/02/12 07:24:08;;;;;;;11.43;6.57;;;2.70;97.40;;;;;;5052242;28;20304;-70
2022/02/12 07:26:34;;;;;;;8.10;6.23;;;3.10;97.90;;;;;;5053288;28;20240;-70
2022/02/12 07:28:59;;;;;;;6.63;5.80;;;3.10;97.90;;;;;;5021770;28;20447;-70
2022/02/12 07:31:26;;;;;;;7.83;6.73;;;2.80;97.90;;;;;;5047027;28;20416;-70
2022/02/12 07:33:51;;;;;;;11.38;7.15;;;3.20;98.10;;;;;;5052290;28;20203;-71
2022/02/12 07:36:17;;;;;;;9.53;6.70;;;3.20;98.20;;;;;;5042338;28;20182;-70
2022/02/12 07:38:43;;;;;;;10.40;6.60;;;2.80;98.00;;;;;;5032445;28;20185;-70
2022/02/12 07:41:09;;;;;;;9.67;7.60;;;3.30;98.20;;;;;;5032266;28;20543;-70
2022/02/12 07:43:35;;;;;;;10.85;7.38;;;3.30;98.30;;;;;;5033450;28;20264;-70
2022/02/12 07:46:04;;;;;;;11.17;7.63;;;3.00;98.10;;;;;;5043048;28;20281;-71
2022/02/12 07:48:30;;;;;;;8.43;7.05;;;3.30;98.40;;;;;;5021284;28;20424;-71
2022/02/12 07:50:55;;;;;;;11.57;7.50;;;2.90;98.40;;;;;;5032771;28;20196;-71
2022/02/12 07:53:21;;;;;;;12.40;8.07;;;3.40;98.80;;;;;;5033159;28;20657;-71
2022/02/12 07:55:47;;;;;;;10.07;6.50;;;3.40;99.00;;;;;;5015280;28;20237;-71
2022/02/12 07:58:13;;;;;;;11.50;8.60;;;3.10;99.00;;;;;;5037974;28;20649;-69
2022/02/12 08:00:38;;;;;;;14.40;8.87;;;3.40;99.30;;;;;;5035058;28;20188;-69
2022/02/12 08:03:04;;;;;;;11.70;8.90;;;3.40;99.50;;;;;;5051147;28;20196;-70
2022/02/12 08:05:30;;;;;;;13.30;9.60;;;3.50;99.60;;;;;;5046915;28;20177;-70
2022/02/12 08:07:56;;;;;;;14.23;9.23;;;3.50;99.70;;;;;;5017254;28;21038;-75
2022/02/12 08:13:06;;;;;;;13.00;8.05;;;3.60;99.90;;;;;;5042608;28;20396;-70
2022/02/12 08:15:32;;;;;;;9.87;8.93;;;3.30;99.50;;;;;;5032585;28;20686;-70
2022/02/12 08:17:58;;;;;;;17.33;9.53;;;3.80;99.90;;;;;;5044950;28;20173;-75
2022/02/12 08:20:25;;;;;;;15.35;9.15;;;3.80;99.80;;;;;;5052234;28;20200;-70
2022/02/12 08:22:51;;;;;;;13.95;8.45;;;3.70;99.90;;;;;;5052102;28;20213;-70
2022/02/12 08:25:18;;;;;;;11.60;8.40;;;3.60;99.80;;;;;;5046010;28;20260;-70
2022/02/12 08:27:43;;;;;;;11.32;8.98;;;4.00;99.90;;;;;;5032537;28;20185;-70
2022/02/12 08:30:09;;;;;;;12.83;8.10;;;4.00;99.70;;;;;;5031448;28;20174;-70
2022/02/12 08:32:35;;;;;;;15.27;8.30;;;4.10;99.80;;;;;;5031993;28;20178;-70
2022/02/12 08:35:02;;;;;;;11.73;7.75;;;4.20;99.70;;;;;;5014037;28;20395;-70
2022/02/12 08:37:28;;;;;;;8.95;7.60;;;4.20;99.90;;;;;;5031823;28;20567;-70
2022/02/12 08:39:54;;;;;;;73.07;37.80;;;4.30;99.50;;;;;;5038705;28;20178;-69
2022/02/12 08:42:20;;;;;;;130.37;60.73;;;4.40;99.50;;;;;;5037453;28;20194;-69
2022/02/12 08:44:47;;;;;;;84.95;44.97;;;4.10;99.50;;;;;;5032032;28;20472;-70
2022/02/12 08:47:14;;;;;;;14.02;9.80;;;4.20;99.90;;;;;;5032228;28;20266;-70
2022/02/12 08:49:41;;;;;;;11.73;8.23;;;4.70;99.70;;;;;;5037861;28;20193;-70
2022/02/12 08:52:06;;;;;;;8.00;6.32;;;5.00;99.40;;;;;;5051410;28;20197;-70
2022/02/12 08:54:34;;;;;;;10.50;6.50;;;4.90;99.90;;;;;;5039956;28;20186;-70
2022/02/12 08:57:01;;;;;;;9.98;6.95;;;4.90;98.90;;;;;;5031602;28;20413;-70
2022/02/12 08:59:29;;;;;;;10.45;6.18;;;5.10;98.60;;;;;;5032231;28;20182;-70
2022/02/12 09:01:55;;;;;;;12.00;5.57;;;5.10;97.40;;;;;;5031837;28;20175;-70
2022/02/12 09:04:22;;;;;;;7.22;4.72;;;5.20;96.60;;;;;;5031042;28;20659;-70
2022/02/12 09:06:47;;;;;;;10.85;5.43;;;5.20;96.40;;;;;;5044068;28;20170;-70
2022/02/12 09:09:13;;;;;;;10.03;4.53;;;5.40;96.20;;;;;;5053870;28;20180;-70
2022/02/12 09:11:43;;;;;;;7.30;4.47;;;5.50;96.20;;;;;;5056218;28;20179;-70
2022/02/12 09:14:10;;;;;;;8.82;4.75;;;5.60;95.40;;;;;;5055227;28;20170;-70
2022/02/12 09:16:37;;;;;;;9.48;3.90;;;5.80;95.00;;;;;;5040924;28;20209;-70
2022/02/12 09:19:04;;;;;;;8.33;4.53;;;6.00;95.00;;;;;;5036389;28;20501;-70
2022/02/12 09:21:30;;;;;;;8.20;3.97;;;6.20;94.40;;;;;;5053471;28;20486;-70
2022/02/12 09:23:56;;;;;;;10.27;4.57;;;6.40;94.30;;;;;;5037427;28;20473;-70
2022/02/12 09:26:30;;;;;;;5.70;4.00;;;6.50;93.50;;;;;;5055358;28;20190;-70
2022/02/12 09:29:01;;;;;;;7.40;4.20;;;6.70;93.10;;;;;;5032598;28;20675;-70
2022/02/12 09:31:27;;;;;;;6.53;4.03;;;6.90;93.20;;;;;;5034210;28;20488;-70
2022/02/12 09:33:53;;;;;;;6.43;3.93;;;7.10;92.20;;;;;;5044125;28;20446;-72
2022/02/12 09:36:19;;;;;;;8.37;3.70;;;7.30;91.50;;;;;;5047876;28;20175;-71
2022/02/12 09:38:45;;;;;;;4.57;3.60;;;7.40;90.50;;;;;;5038221;28;20501;-72
2022/02/12 09:41:15;;;;;;;5.67;3.40;;;7.60;88.90;;;;;;5046156;28;20538;-73
2022/02/12 09:43:42;;;;;;;5.47;3.57;;;7.70;88.00;;;;;;5035748;28;20454;-73
2022/02/12 09:46:45;;;;;;;5.07;3.37;;;7.80;88.50;;;;;;5031381;28;20489;-72
2022/02/12 09:49:11;;;;;;;10.50;4.40;;;8.00;87.60;;;;;;5055128;28;20934;-72
2022/02/12 09:51:40;;;;;;;432.53;222.87;;;8.10;86.10;;;;;;5037774;28;20456;-73
2022/02/12 09:54:05;;;;;;;23.87;11.53;;;8.20;86.40;;;;;;5054546;28;20451;-72
2022/02/12 09:56:34;;;;;;;8.27;4.00;;;8.30;85.30;;;;;;5055548;28;20470;-73
2022/02/12 09:59:00;;;;;;;8.20;3.67;;;8.60;84.80;;;;;;5036051;28;20244;-73
2022/02/12 10:01:26;;;;;;;5.27;3.60;;;8.70;84.10;;;;;;5035228;28;20433;-72
2022/02/12 10:03:52;;;;;;;8.33;5.83;;;8.80;80.80;;;;;;5036425;28;20468;-73
2022/02/12 10:06:41;;;;;;;5.37;3.97;;;8.90;80.50;;;;;;5046606;28;20660;-73
2022/02/12 10:09:08;;;;;;;5.93;3.90;;;8.80;79.20;;;;;;5034315;28;20179;-72
2022/02/12 10:11:43;;;;;;;5.83;3.80;;;9.00;79.00;;;;;;5040780;28;20412;-73
2022/02/12 10:14:10;;;;;;;5.67;3.87;;;9.00;77.10;;;;;;5038549;28;20436;-72
2022/02/12 10:17:00;;;;;;;9.77;4.10;;;9.10;78.90;;;;;;5054627;28;20416;-73
2022/02/12 10:19:30;;;;;;;5.67;3.67;;;9.20;75.90;;;;;;5036007;28;20420;-73
2022/02/12 10:22:23;;;;;;;5.90;3.93;;;9.20;75.00;;;;;;5054741;28;20469;-73
2022/02/12 10:25:03;;;;;;;5.57;3.50;;;9.40;76.10;;;;;;5049108;28;20464;-73
2022/02/12 10:27:30;;;;;;;71.87;36.83;;;9.50;74.60;;;;;;5054036;28;20427;-73
2022/02/12 10:29:58;;;;;;;15.43;11.83;;;9.50;73.20;;;;;;5036647;28;20924;-72
2022/02/12 10:32:25;;;;;;;4.47;4.07;;;9.60;73.40;;;;;;5039150;28;20413;-71
2022/02/12 10:34:52;;;;;;;6.33;4.10;;;9.90;73.50;;;;;;5039105;28;20425;-72
2022/02/12 10:37:22;;;;;;;5.80;3.57;;;9.60;69.30;;;;;;5034287;28;20503;-72
2022/02/12 10:39:57;;;;;;;5.57;3.60;;;9.30;70.10;;;;;;5039019;28;20426;-71
2022/02/12 10:42:28;;;;;;;7.37;4.10;;;9.50;69.40;;;;;;5034281;28;20935;-72
2022/02/12 10:44:54;;;;;;;7.93;4.50;;;9.40;69.00;;;;;;5044277;28;20973;-71
2022/02/12 10:47:21;;;;;;;6.70;3.93;;;9.30;68.90;;;;;;5044608;28;20893;-72
2022/02/12 10:49:47;;;;;;;4.93;3.20;;;9.40;68.70;;;;;;5050974;28;20426;-72
2022/02/12 10:52:14;;;;;;;4.87;3.50;;;9.50;68.70;;;;;;5034906;28;20402;-71
2022/02/12 10:54:50;;;;;;;4.97;3.50;;;9.70;67.80;;;;;;5049434;28;20436;-72
2022/02/12 10:57:17;;;;;;;5.27;3.40;;;9.80;68.50;;;;;;5051342;28;20947;-79
2022/02/12 10:59:44;;;;;;;7.77;3.57;;;10.10;65.80;;;;;;5034760;28;20465;-72
2022/02/12 11:02:15;;;;;;;4.43;3.13;;;10.50;66.20;;;;;;5042420;28;20459;-72
2022/02/12 11:04:42;;;;;;;5.77;4.10;;;10.50;64.00;;;;;;5036206;28;20464;-70
2022/02/12 11:07:13;;;;;;;6.10;3.97;;;10.50;61.60;;;;;;5049458;28;20785;-76
2022/02/12 11:09:39;;;;;;;4.23;3.30;;;10.50;62.20;;;;;;5035501;28;20408;-71
2022/02/12 11:12:06;;;;;;;8.13;4.20;;;10.50;61.90;;;;;;5034569;28;20431;-70
2022/02/12 11:14:35;;;;;;;4.33;3.93;;;10.60;61.90;;;;;;5030984;28;20430;-71
2022/02/12 11:17:13;;;;;;;5.93;3.93;;;10.80;64.10;;;;;;5035661;28;20428;-70
2022/02/12 11:19:40;;;;;;;6.67;4.07;;;10.80;61.40;;;;;;5035410;28;20424;-70
2022/02/12 11:22:09;;;;;;;4.87;4.00;;;10.80;61.70;;;;;;5051762;28;20559;-75
2022/02/12 11:24:43;;;;;;;5.97;4.50;;;10.70;61.00;;;;;;5049317;28;20468;-70
2022/02/12 11:27:23;;;;;;;5.03;4.10;;;10.70;61.70;;;;;;5033015;28;20495;-76
2022/02/12 11:29:53;;;;;;;4.47;3.70;;;10.60;61.40;;;;;;5033782;28;20408;-70
2022/02/12 11:32:22;;;;;;;282.97;156.77;;;10.40;59.50;;;;;;5032284;28;20505;-70
2022/02/12 11:35:06;;;;;;;9.57;7.27;;;10.30;61.40;;;;;;5033436;28;20421;-70
2022/02/12 11:37:35;;;;;;;3.63;3.33;;;10.40;60.10;;;;;;5033113;28;20499;-70
2022/02/12 11:40:23;;;;;;;4.20;3.70;;;10.80;59.30;;;;;;5015357;28;20417;-70
2022/02/12 11:42:58;;;;;;;4.40;4.00;;;10.70;57.80;;;;;;5045890;28;20473;-70
2022/02/12 11:45:36;;;;;;;6.40;3.73;;;10.90;57.80;;;;;;5051038;28;20467;-72
2022/02/12 11:48:10;;;;;;;4.00;3.10;;;10.90;57.40;;;;;;5038882;28;20428;-70
2022/02/12 11:50:53;;;;;;;3.57;3.27;;;11.00;56.00;;;;;;5050751;28;20523;-70
2022/02/12 11:53:46;;;;;;;6.60;3.67;;;11.00;55.10;;;;;;5051235;28;20778;-70
2022/02/12 11:56:17;;;;;;;4.43;3.20;;;10.90;55.50;;;;;;5029422;28;20509;-76
2022/02/12 11:58:44;;;;;;;4.53;3.97;;;10.80;55.50;;;;;;5053245;28;20404;-70
2022/02/12 12:01:22;;;;;;;6.33;3.50;;;10.90;55.70;;;;;;5052636;28;20731;-71
2022/02/12 12:04:06;;;;;;;4.40;3.40;;;10.60;56.60;;;;;;5053334;28;20459;-70
2022/02/12 12:06:34;;;;;;;8.83;4.13;;;10.70;57.20;;;;;;5052569;28;20415;-70
2022/02/12 12:09:07;;;;;;;4.90;3.60;;;10.80;57.50;;;;;;5053163;28;20742;-70
2022/02/12 12:11:33;;;;;;;4.20;3.80;;;10.80;57.40;;;;;;5052011;28;20832;-70
2022/02/12 12:14:22;;;;;;;3.47;2.80;;;11.10;58.70;;;;;;5052689;28;20435;-70
2022/02/12 12:16:58;;;;;;;4.90;3.87;;;11.40;58.00;;;;;;5052847;28;20951;-70
2022/02/12 12:19:32;;;;;;;4.73;3.27;;;11.80;57.90;;;;;;5052042;28;20416;-70
2022/02/12 12:22:10;;;;;;;4.30;3.90;;;11.90;55.50;;;;;;5053071;28;20464;-70
2022/02/12 12:24:36;;;;;;;4.50;3.90;;;11.70;55.20;;;;;;5053136;28;20551;-70
2022/02/12 12:27:03;;;;;;;3.60;3.30;;;11.60;55.30;;;;;;5052599;28;20421;-70
2022/02/12 12:32:16;;;;;;;4.10;3.40;;;11.30;55.20;;;;;;5052154;28;20761;-70
2022/02/12 12:34:58;;;;;;;7.77;3.33;;;11.30;56.70;;;;;;5034896;28;20789;-70
2022/02/12 12:37:25;;;;;;;3.60;3.30;;;11.30;56.10;;;;;;5034283;28;20909;-70
2022/02/12 12:39:51;;;;;;;3.30;3.00;;;11.20;56.50;;;;;;5052635;28;20420;-70
2022/02/12 12:42:20;;;;;;;3.67;3.27;;;10.90;56.20;;;;;;5051438;28;20765;-70
2022/02/12 12:45:06;;;;;;;3.73;3.10;;;10.80;57.40;;;;;;5018324;28;20472;-70
2022/02/12 12:47:33;;;;;;;3.93;3.50;;;10.70;57.00;;;;;;5034069;28;20444;-70
2022/02/12 12:50:01;;;;;;;5.60;3.57;;;10.50;56.40;;;;;;5052832;28;20415;-70
2022/02/12 12:52:31;;;;;;;3.70;3.40;;;10.50;57.00;;;;;;5034128;28;20420;-70
2022/02/12 12:55:18;;;;;;;7.90;3.93;;;10.60;57.20;;;;;;5052227;28;20913;-70
2022/02/12 12:57:45;;;;;;;4.90;4.50;;;10.40;57.00;;;;;;5052493;28;20413;-70
2022/02/12 13:00:12;;;;;;;4.87;4.33;;;10.50;58.00;;;;;;5052508;28;20408;-70
2022/02/12 13:02:50;;;;;;;5.07;4.57;;;10.50;57.90;;;;;;5052410;28;20415;-70
2022/02/12 13:05:29;;;;;;;4.30;3.57;;;10.40;58.30;;;;;;5051794;28;20950;-70
2022/02/12 13:08:03;;;;;;;8.83;3.83;;;10.30;57.90;;;;;;5052520;28;20810;-70